createdAt,value
2022-09-24T00:00:42.610Z,1010.72
2022-09-24T00:01:42.655Z,1010.73
2022-09-24T00:02:42.626Z,1010.76
2022-09-24T00:03:42.555Z,1010.75
2022-09-24T00:04:42.546Z,1010.75
2022-09-24T00:05:42.533Z,1010.74
2022-09-24T00:06:42.525Z,1010.76
2022-09-24T00:07:42.513Z,1010.73
2022-09-24T00:08:42.506Z,1010.78
2022-09-24T00:09:42.489Z,1010.77
2022-09-24T00:10:42.476Z,1010.75
2022-09-24T00:11:42.466Z,1010.74
2022-09-24T00:12:42.455Z,1010.75
2022-09-24T00:13:42.443Z,1010.76
2022-09-24T00:14:42.452Z,1010.73
2022-09-24T00:15:42.453Z,1010.77
2022-09-24T00:16:42.558Z,1010.73
2022-09-24T00:17:42.398Z,1010.74
2022-09-24T00:18:42.388Z,1010.72
2022-09-24T00:19:42.377Z,1010.73
2022-09-24T00:20:42.395Z,1010.71
2022-09-24T00:21:42.360Z,1010.71
2022-09-24T00:22:42.344Z,1010.71
2022-09-24T00:23:42.332Z,1010.72
2022-09-24T00:24:42.319Z,1010.72
2022-09-24T00:25:42.309Z,1010.68
2022-09-24T00:26:42.312Z,1010.66
2022-09-24T00:27:42.287Z,1010.63
2022-09-24T00:28:42.275Z,1010.64
2022-09-24T00:29:42.267Z,1010.64
2022-09-24T00:30:42.252Z,1010.64
2022-09-24T00:31:42.344Z,1010.63
2022-09-24T00:32:42.253Z,1010.64
2022-09-24T00:33:42.219Z,1010.59
2022-09-24T00:34:42.208Z,1010.58
2022-09-24T00:35:42.197Z,1010.57
2022-09-24T00:36:42.183Z,1010.55
2022-09-24T00:37:42.173Z,1010.56
2022-09-24T00:38:42.174Z,1010.57
2022-09-24T00:39:42.150Z,1010.52
2022-09-24T00:40:42.198Z,1010.53
2022-09-24T00:41:43.150Z,1010.50
2022-09-24T00:42:42.118Z,1010.53
2022-09-24T00:43:42.106Z,1010.51
2022-09-24T00:44:42.138Z,1010.50
2022-09-24T00:45:42.083Z,1010.50
2022-09-24T00:46:42.113Z,1010.47
2022-09-24T00:47:42.060Z,1010.47
2022-09-24T00:48:42.069Z,1010.47
2022-09-24T00:49:42.039Z,1010.44
2022-09-24T00:50:42.063Z,1010.42
2022-09-24T00:51:42.016Z,1010.40
2022-09-24T00:52:42.004Z,1010.38
2022-09-24T00:53:41.994Z,1010.41
2022-09-24T00:54:41.993Z,1010.38
2022-09-24T00:55:41.971Z,1010.37
2022-09-24T00:56:41.965Z,1010.35
2022-09-24T00:57:41.948Z,1010.40
2022-09-24T00:58:41.942Z,1010.40
2022-09-24T00:59:41.929Z,1010.39
2022-09-24T01:00:41.982Z,1010.38
2022-09-24T01:01:41.934Z,1010.36
2022-09-24T01:02:41.908Z,1010.34
2022-09-24T01:03:41.881Z,1010.39
2022-09-24T01:04:42.010Z,1010.31
2022-09-24T01:05:41.862Z,1010.32
2022-09-24T01:06:41.847Z,1010.34
2022-09-24T01:07:41.835Z,1010.34
2022-09-24T01:08:41.846Z,1010.32
2022-09-24T01:09:41.815Z,1010.30
2022-09-24T01:10:41.802Z,1010.32
2022-09-24T01:11:41.791Z,1010.35
2022-09-24T01:12:41.780Z,1010.29
2022-09-24T01:13:43.530Z,1010.29
2022-09-24T01:14:41.763Z,1010.27
2022-09-24T01:15:41.745Z,1010.26
2022-09-24T01:16:41.764Z,1010.25
2022-09-24T01:17:41.723Z,1010.25
2022-09-24T01:18:41.712Z,1010.26
2022-09-24T01:19:41.699Z,1010.26
2022-09-24T01:20:41.798Z,1010.27
2022-09-24T01:21:41.677Z,1010.24
2022-09-24T01:22:41.666Z,1010.22
2022-09-24T01:23:46.280Z,1010.20
2022-09-24T01:24:42.645Z,1010.19
2022-09-24T01:25:41.634Z,1010.18
2022-09-24T01:26:41.652Z,1010.13
2022-09-24T01:27:41.611Z,1010.16
2022-09-24T01:28:41.601Z,1010.14
2022-09-24T01:29:41.589Z,1010.13
2022-09-24T01:30:42.368Z,1010.15
2022-09-24T01:31:41.678Z,1010.15
2022-09-24T01:32:41.560Z,1010.15
2022-09-24T01:33:41.543Z,1010.13
2022-09-24T01:34:41.532Z,1010.15
2022-09-24T01:35:41.519Z,1010.11
2022-09-24T01:36:41.525Z,1010.15
2022-09-24T01:37:41.496Z,1010.15
2022-09-24T01:38:41.502Z,1010.12
2022-09-24T01:39:41.482Z,1010.14
2022-09-24T01:40:41.525Z,1010.09
2022-09-24T01:41:41.454Z,1010.10
2022-09-24T01:42:41.441Z,1010.11
2022-09-24T01:43:41.431Z,1010.09
2022-09-24T01:44:41.423Z,1010.06
2022-09-24T01:45:41.407Z,1010.04
2022-09-24T01:46:41.521Z,1010.06
2022-09-24T01:47:41.385Z,1010.03
2022-09-24T01:48:41.374Z,1010.03
2022-09-24T01:49:41.361Z,1010.04
2022-09-24T01:50:41.359Z,1010.02
2022-09-24T01:51:41.339Z,1010.01
2022-09-24T01:52:41.351Z,1010.00
2022-09-24T01:53:41.319Z,1009.98
2022-09-24T01:54:41.306Z,1009.97
2022-09-24T01:55:41.296Z,1009.96
2022-09-24T01:56:41.304Z,1009.94
2022-09-24T01:57:41.273Z,1009.94
2022-09-24T01:58:41.261Z,1009.95
2022-09-24T01:59:41.249Z,1009.96
2022-09-24T02:00:41.292Z,1009.96
2022-09-24T02:01:41.288Z,1009.94
2022-09-24T02:02:41.249Z,1009.89
2022-09-24T02:03:41.206Z,1009.90
2022-09-24T02:04:41.209Z,1009.94
2022-09-24T02:05:41.181Z,1009.93
2022-09-24T02:06:41.182Z,1009.92
2022-09-24T02:07:41.160Z,1009.92
2022-09-24T02:08:41.186Z,1009.88
2022-09-24T02:09:41.137Z,1009.89
2022-09-24T02:10:41.127Z,1009.85
2022-09-24T02:11:41.116Z,1009.86
2022-09-24T02:12:41.103Z,1009.85
2022-09-24T02:13:41.093Z,1009.84
2022-09-24T02:14:41.095Z,1009.84
2022-09-24T02:15:41.118Z,1009.81
2022-09-24T02:16:41.060Z,1009.86
2022-09-24T02:17:41.046Z,1009.86
2022-09-24T02:18:41.035Z,1009.87
2022-09-24T02:19:41.025Z,1009.82
2022-09-24T02:20:41.020Z,1009.83
2022-09-24T02:21:41.001Z,1009.82
2022-09-24T02:22:40.991Z,1009.83
2022-09-24T02:23:40.980Z,1009.84
2022-09-24T02:24:41.127Z,1009.84
2022-09-24T02:25:40.957Z,1009.83
2022-09-24T02:26:40.950Z,1009.79
2022-09-24T02:27:40.934Z,1009.81
2022-09-24T02:28:40.923Z,1009.78
2022-09-24T02:29:40.911Z,1009.77
2022-09-24T02:30:40.918Z,1009.78
2022-09-24T02:31:40.995Z,1009.76
2022-09-24T02:32:40.885Z,1009.78
2022-09-24T02:33:40.867Z,1009.78
2022-09-24T02:34:40.855Z,1009.80
2022-09-24T02:35:40.848Z,1009.80
2022-09-24T02:36:40.833Z,1009.77
2022-09-24T02:37:40.822Z,1009.78
2022-09-24T02:38:40.840Z,1009.78
2022-09-24T02:39:40.799Z,1009.79
2022-09-24T02:40:40.886Z,1009.80
2022-09-24T02:41:40.782Z,1009.81
2022-09-24T02:42:40.765Z,1009.77
2022-09-24T02:43:40.755Z,1009.75
2022-09-24T02:44:40.750Z,1009.76
2022-09-24T02:45:40.731Z,1009.74
2022-09-24T02:46:40.764Z,1009.74
2022-09-24T02:47:40.710Z,1009.74
2022-09-24T02:48:40.699Z,1009.75
2022-09-24T02:49:40.685Z,1009.73
2022-09-24T02:50:40.691Z,1009.71
2022-09-24T02:51:40.667Z,1009.72
2022-09-24T02:52:40.652Z,1009.69
2022-09-24T02:53:40.641Z,1009.70
2022-09-24T02:54:40.632Z,1009.70
2022-09-24T02:55:40.619Z,1009.70
2022-09-24T02:56:40.633Z,1009.66
2022-09-24T02:57:40.600Z,1009.70
2022-09-24T02:58:40.585Z,1009.63
2022-09-24T02:59:40.574Z,1009.65
2022-09-24T03:00:40.562Z,1009.64
2022-09-24T03:01:40.697Z,1009.62
2022-09-24T03:02:40.661Z,1009.64
2022-09-24T03:03:40.531Z,1009.57
2022-09-24T03:04:40.517Z,1009.65
2022-09-24T03:05:40.507Z,1009.59
2022-09-24T03:06:40.495Z,1009.57
2022-09-24T03:07:40.484Z,1009.60
2022-09-24T03:08:40.493Z,1009.62
2022-09-24T03:09:40.460Z,1009.65
2022-09-24T03:10:40.452Z,1009.62
2022-09-24T03:11:40.439Z,1009.60
2022-09-24T03:12:40.447Z,1009.61
2022-09-24T03:13:40.415Z,1009.63
2022-09-24T03:14:40.450Z,1009.61
2022-09-24T03:15:40.474Z,1009.60
2022-09-24T03:16:40.387Z,1009.59
2022-09-24T03:17:40.376Z,1009.59
2022-09-24T03:18:40.362Z,1009.59
2022-09-24T03:19:40.348Z,1009.56
2022-09-24T03:20:40.343Z,1009.58
2022-09-24T03:21:40.327Z,1009.56
2022-09-24T03:22:40.314Z,1009.55
2022-09-24T03:23:40.304Z,1009.54
2022-09-24T03:24:40.291Z,1009.52
2022-09-24T03:25:40.281Z,1009.56
2022-09-24T03:26:40.288Z,1009.57
2022-09-24T03:27:40.259Z,1009.64
2022-09-24T03:28:40.263Z,1009.64
2022-09-24T03:29:40.235Z,1009.62
2022-09-24T03:30:40.224Z,1009.57
2022-09-24T03:31:40.319Z,1009.54
2022-09-24T03:32:40.278Z,1009.55
2022-09-24T03:33:40.193Z,1009.55
2022-09-24T03:34:40.179Z,1009.54
2022-09-24T03:35:40.192Z,1009.54
2022-09-24T03:36:40.179Z,1009.54
2022-09-24T03:37:40.146Z,1009.50
2022-09-24T03:38:40.150Z,1009.53
2022-09-24T03:39:40.125Z,1009.53
2022-09-24T03:40:40.184Z,1009.55
2022-09-24T03:41:40.102Z,1009.58
2022-09-24T03:42:40.089Z,1009.61
2022-09-24T03:43:40.078Z,1009.55
2022-09-24T03:44:40.093Z,1009.52
2022-09-24T03:45:40.065Z,1009.52
2022-09-24T03:46:40.107Z,1009.52
2022-09-24T03:47:40.032Z,1009.59
2022-09-24T03:48:40.022Z,1009.63
2022-09-24T03:49:40.015Z,1009.64
2022-09-24T03:50:40.028Z,1009.60
2022-09-24T03:51:39.991Z,1009.52
2022-09-24T03:52:39.976Z,1009.57
2022-09-24T03:53:39.968Z,1009.62
2022-09-24T03:54:39.954Z,1009.62
2022-09-24T03:55:39.945Z,1009.60
2022-09-24T03:56:39.937Z,1009.56
2022-09-24T03:57:39.922Z,1009.50
2022-09-24T03:58:39.910Z,1009.53
2022-09-24T03:59:39.898Z,1009.54
2022-09-24T04:00:41.169Z,1009.53
2022-09-24T04:01:39.940Z,1009.51
2022-09-24T04:02:39.928Z,1009.53
2022-09-24T04:03:39.853Z,1009.50
2022-09-24T04:04:39.842Z,1009.49
2022-09-24T04:05:39.829Z,1009.49
2022-09-24T04:06:39.818Z,1009.47
2022-09-24T04:07:39.807Z,1009.46
2022-09-24T04:08:39.819Z,1009.46
2022-09-24T04:09:39.784Z,1009.44
2022-09-24T04:10:39.774Z,1009.41
2022-09-24T04:11:39.763Z,1009.43
2022-09-24T04:12:39.751Z,1009.41
2022-09-24T04:13:39.743Z,1009.38
2022-09-24T04:14:39.735Z,1009.37
2022-09-24T04:15:39.741Z,1009.32
2022-09-24T04:16:39.898Z,1009.33
2022-09-24T04:17:39.695Z,1009.35
2022-09-24T04:18:39.712Z,1009.33
2022-09-24T04:19:39.674Z,1009.34
2022-09-24T04:20:39.690Z,1009.30
2022-09-24T04:21:39.649Z,1009.30
2022-09-24T04:22:39.639Z,1009.25
2022-09-24T04:23:39.629Z,1009.29
2022-09-24T04:24:39.616Z,1009.28
2022-09-24T04:25:39.605Z,1009.28
2022-09-24T04:26:39.600Z,1009.30
2022-09-24T04:27:39.583Z,1009.30
2022-09-24T04:28:39.571Z,1009.29
2022-09-24T04:29:39.560Z,1009.27
2022-09-24T04:30:39.547Z,1009.28
2022-09-24T04:31:39.623Z,1009.30
2022-09-24T04:32:39.549Z,1009.29
2022-09-24T04:33:39.515Z,1009.27
2022-09-24T04:34:39.503Z,1009.31
2022-09-24T04:35:39.495Z,1009.29
2022-09-24T04:36:39.481Z,1009.31
2022-09-24T04:37:39.469Z,1009.28
2022-09-24T04:38:39.475Z,1009.33
2022-09-24T04:39:39.446Z,1009.32
2022-09-24T04:40:39.484Z,1009.33
2022-09-24T04:41:39.424Z,1009.27
2022-09-24T04:42:39.413Z,1009.32
2022-09-24T04:43:39.402Z,1009.28
2022-09-24T04:44:39.412Z,1009.30
2022-09-24T04:45:39.383Z,1009.31
2022-09-24T04:46:39.383Z,1009.26
2022-09-24T04:47:39.357Z,1009.29
2022-09-24T04:48:39.364Z,1009.28
2022-09-24T04:49:39.338Z,1009.32
2022-09-24T04:50:43.413Z,1009.32
2022-09-24T04:51:40.310Z,1009.28
2022-09-24T04:52:39.301Z,1009.34
2022-09-24T04:53:39.290Z,1009.33
2022-09-24T04:54:39.278Z,1009.33
2022-09-24T04:55:39.268Z,1009.29
2022-09-24T04:56:39.286Z,1009.27
2022-09-24T04:57:39.244Z,1009.27
2022-09-24T04:58:39.234Z,1009.29
2022-09-24T04:59:39.223Z,1009.27
2022-09-24T05:00:39.212Z,1009.25
2022-09-24T05:01:39.398Z,1009.24
2022-09-24T05:02:39.359Z,1009.29
2022-09-24T05:03:39.179Z,1009.27
2022-09-24T05:04:39.182Z,1009.26
2022-09-24T05:05:39.155Z,1009.30
2022-09-24T05:06:39.142Z,1009.29
2022-09-24T05:07:39.132Z,1009.28
2022-09-24T05:08:39.128Z,1009.32
2022-09-24T05:09:39.110Z,1009.34
2022-09-24T05:10:39.099Z,1009.30
2022-09-24T05:11:39.087Z,1009.31
2022-09-24T05:12:39.075Z,1009.34
2022-09-24T05:13:39.064Z,1009.34
2022-09-24T05:14:39.069Z,1009.33
2022-09-24T05:15:42.963Z,1009.35
2022-09-24T05:16:39.117Z,1009.32
2022-09-24T05:17:39.026Z,1009.33
2022-09-24T05:18:39.011Z,1009.38
2022-09-24T05:19:38.997Z,1009.34
2022-09-24T05:20:39.027Z,1009.37
2022-09-24T05:21:38.975Z,1009.40
2022-09-24T05:22:38.962Z,1009.42
2022-09-24T05:23:38.952Z,1009.44
2022-09-24T05:24:38.941Z,1009.43
2022-09-24T05:25:38.929Z,1009.43
2022-09-24T05:26:38.970Z,1009.43
2022-09-24T05:27:38.906Z,1009.42
2022-09-24T05:28:38.898Z,1009.41
2022-09-24T05:29:38.884Z,1009.41
2022-09-24T05:30:38.874Z,1009.43
2022-09-24T05:31:38.984Z,1009.41
2022-09-24T05:32:38.881Z,1009.43
2022-09-24T05:33:38.840Z,1009.42
2022-09-24T05:34:38.828Z,1009.40
2022-09-24T05:35:38.815Z,1009.40
2022-09-24T05:36:38.907Z,1009.40
2022-09-24T05:37:38.793Z,1009.39
2022-09-24T05:38:41.580Z,1009.35
2022-09-24T05:39:38.770Z,1009.39
2022-09-24T05:40:38.869Z,1009.38
2022-09-24T05:41:38.749Z,1009.36
2022-09-24T05:42:38.737Z,1009.40
2022-09-24T05:43:38.726Z,1009.34
2022-09-24T05:44:38.722Z,1009.36
2022-09-24T05:45:38.706Z,1009.37
2022-09-24T05:46:38.743Z,1009.28
2022-09-24T05:47:38.680Z,1009.31
2022-09-24T05:48:38.669Z,1009.34
2022-09-24T05:49:38.659Z,1009.32
2022-09-24T05:50:38.653Z,1009.33
2022-09-24T05:51:38.635Z,1009.30
2022-09-24T05:52:38.640Z,1009.33
2022-09-24T05:53:38.615Z,1009.29
2022-09-24T05:54:38.601Z,1009.31
2022-09-24T05:55:38.593Z,1009.35
2022-09-24T05:56:38.601Z,1009.36
2022-09-24T05:57:38.570Z,1009.36
2022-09-24T05:58:38.557Z,1009.35
2022-09-24T05:59:38.545Z,1009.38
2022-09-24T06:00:38.601Z,1009.36
2022-09-24T06:01:38.551Z,1009.37
2022-09-24T06:02:38.540Z,1009.42
2022-09-24T06:03:38.500Z,1009.41
2022-09-24T06:04:38.489Z,1009.45
2022-09-24T06:05:38.478Z,1009.51
2022-09-24T06:06:38.466Z,1009.49
2022-09-24T06:07:38.456Z,1009.53
2022-09-24T06:08:38.494Z,1009.53
2022-09-24T06:09:38.432Z,1009.54
2022-09-24T06:10:38.422Z,1009.53
2022-09-24T06:11:40.684Z,1009.50
2022-09-24T06:12:38.398Z,1009.55
2022-09-24T06:13:38.387Z,1009.55
2022-09-24T06:14:38.383Z,1009.53
2022-09-24T06:15:38.366Z,1009.52
2022-09-24T06:16:38.469Z,1009.53
2022-09-24T06:17:38.342Z,1009.49
2022-09-24T06:18:38.332Z,1009.54
2022-09-24T06:19:38.320Z,1009.54
2022-09-24T06:20:38.316Z,1009.56
2022-09-24T06:21:38.298Z,1009.56
2022-09-24T06:22:38.287Z,1009.61
2022-09-24T06:23:38.275Z,1009.59
2022-09-24T06:24:38.281Z,1009.63
2022-09-24T06:25:38.257Z,1009.59
2022-09-24T06:26:38.267Z,1009.60
2022-09-24T06:27:38.273Z,1009.61
2022-09-24T06:28:38.224Z,1009.60
2022-09-24T06:29:38.209Z,1009.61
2022-09-24T06:30:38.196Z,1009.59
2022-09-24T06:31:38.301Z,1009.61
2022-09-24T06:32:38.195Z,1009.57
2022-09-24T06:33:38.165Z,1009.56
2022-09-24T06:34:38.152Z,1009.54
2022-09-24T06:35:38.142Z,1009.52
2022-09-24T06:36:38.128Z,1009.51
2022-09-24T06:37:38.117Z,1009.53
2022-09-24T06:38:38.115Z,1009.54
2022-09-24T06:39:38.104Z,1009.53
2022-09-24T06:40:38.298Z,1009.52
2022-09-24T06:41:38.072Z,1009.54
2022-09-24T06:42:38.062Z,1009.55
2022-09-24T06:43:38.070Z,1009.55
2022-09-24T06:44:38.045Z,1009.53
2022-09-24T06:45:38.028Z,1009.54
2022-09-24T06:46:38.086Z,1009.53
2022-09-24T06:47:38.004Z,1009.54
2022-09-24T06:48:37.992Z,1009.57
2022-09-24T06:49:37.984Z,1009.54
2022-09-24T06:50:37.986Z,1009.56
2022-09-24T06:51:37.961Z,1009.53
2022-09-24T06:52:37.949Z,1009.56
2022-09-24T06:53:37.937Z,1009.54
2022-09-24T06:54:37.925Z,1009.56
2022-09-24T06:55:37.913Z,1009.57
2022-09-24T06:56:37.925Z,1009.58
2022-09-24T06:57:37.895Z,1009.56
2022-09-24T06:58:37.881Z,1009.60
2022-09-24T06:59:37.868Z,1009.62
2022-09-24T07:00:37.909Z,1009.64
2022-09-24T07:01:38.006Z,1009.62
2022-09-24T07:02:37.949Z,1009.63
2022-09-24T07:03:37.827Z,1009.63
2022-09-24T07:04:37.814Z,1009.65
2022-09-24T07:05:43.244Z,1009.66
2022-09-24T07:06:38.789Z,1009.69
2022-09-24T07:07:37.787Z,1009.72
2022-09-24T07:08:37.775Z,1009.65
2022-09-24T07:09:37.756Z,1009.72
2022-09-24T07:10:37.749Z,1009.69
2022-09-24T07:11:37.734Z,1009.69
2022-09-24T07:12:37.740Z,1009.72
2022-09-24T07:13:37.712Z,1009.67
2022-09-24T07:14:37.706Z,1009.69
2022-09-24T07:15:37.726Z,1009.68
2022-09-24T07:16:37.684Z,1009.70
2022-09-24T07:17:37.666Z,1009.70
2022-09-24T07:18:37.659Z,1009.72
2022-09-24T07:19:37.644Z,1009.71
2022-09-24T07:20:37.639Z,1009.74
2022-09-24T07:21:37.621Z,1009.74
2022-09-24T07:22:37.610Z,1009.73
2022-09-24T07:23:37.599Z,1009.75
2022-09-24T07:24:37.587Z,1009.77
2022-09-24T07:25:37.576Z,1009.80
2022-09-24T07:26:37.572Z,1009.75
2022-09-24T07:27:37.554Z,1009.79
2022-09-24T07:28:37.560Z,1009.79
2022-09-24T07:29:37.531Z,1009.79
2022-09-24T07:30:37.525Z,1009.79
2022-09-24T07:31:37.633Z,1009.78
2022-09-24T07:32:38.053Z,1009.79
2022-09-24T07:33:37.487Z,1009.79
2022-09-24T07:34:37.475Z,1009.84
2022-09-24T07:35:37.463Z,1009.76
2022-09-24T07:36:37.452Z,1009.80
2022-09-24T07:37:37.444Z,1009.79
2022-09-24T07:38:37.439Z,1009.79
2022-09-24T07:39:37.427Z,1009.82
2022-09-24T07:40:37.451Z,1009.80
2022-09-24T07:41:41.964Z,1009.75
2022-09-24T07:42:37.385Z,1009.76
2022-09-24T07:43:37.377Z,1009.79
2022-09-24T07:44:37.470Z,1009.78
2022-09-24T07:45:37.351Z,1009.76
2022-09-24T07:46:37.425Z,1009.77
2022-09-24T07:47:37.330Z,1009.77
2022-09-24T07:48:37.318Z,1009.77
2022-09-24T07:49:37.306Z,1009.78
2022-09-24T07:50:37.332Z,1009.76
2022-09-24T07:51:37.299Z,1009.78
2022-09-24T07:52:37.272Z,1009.78
2022-09-24T07:53:37.261Z,1009.78
2022-09-24T07:54:37.249Z,1009.78
2022-09-24T07:55:37.238Z,1009.78
2022-09-24T07:56:37.232Z,1009.79
2022-09-24T07:57:37.215Z,1009.81
2022-09-24T07:58:37.204Z,1009.82
2022-09-24T07:59:37.199Z,1009.83
2022-09-24T08:00:37.205Z,1009.81
2022-09-24T08:01:37.266Z,1009.78
2022-09-24T08:02:37.166Z,1009.80
2022-09-24T08:03:37.216Z,1009.82
2022-09-24T08:04:37.137Z,1009.80
2022-09-24T08:05:37.127Z,1009.79
2022-09-24T08:06:39.504Z,1009.80
2022-09-24T08:07:37.103Z,1009.81
2022-09-24T08:08:37.097Z,1009.82
2022-09-24T08:09:37.081Z,1009.85
2022-09-24T08:10:37.068Z,1009.83
2022-09-24T08:11:37.058Z,1009.80
2022-09-24T08:12:37.047Z,1009.85
2022-09-24T08:13:37.039Z,1009.88
2022-09-24T08:14:37.035Z,1009.90
2022-09-24T08:15:37.063Z,1009.90
2022-09-24T08:16:37.018Z,1009.88
2022-09-24T08:17:36.989Z,1009.93
2022-09-24T08:18:36.978Z,1009.88
2022-09-24T08:19:36.969Z,1009.88
2022-09-24T08:20:36.963Z,1009.89
2022-09-24T08:21:36.946Z,1009.90
2022-09-24T08:22:36.950Z,1009.86
2022-09-24T08:23:36.924Z,1009.90
2022-09-24T08:24:36.912Z,1009.87
2022-09-24T08:25:36.914Z,1009.85
2022-09-24T08:26:36.909Z,1009.81
2022-09-24T08:27:36.884Z,1009.83
2022-09-24T08:28:36.873Z,1009.88
2022-09-24T08:29:36.856Z,1009.84
2022-09-24T08:30:36.844Z,1009.85
2022-09-24T08:31:36.902Z,1009.90
2022-09-24T08:32:36.844Z,1009.86
2022-09-24T08:33:36.811Z,1009.84
2022-09-24T08:34:36.800Z,1009.85
2022-09-24T08:35:36.790Z,1009.87
2022-09-24T08:36:42.052Z,1009.87
2022-09-24T08:37:37.888Z,1009.92
2022-09-24T08:38:36.753Z,1009.85
2022-09-24T08:39:36.744Z,1009.85
2022-09-24T08:40:36.815Z,1009.88
2022-09-24T08:41:36.729Z,1009.89
2022-09-24T08:42:36.710Z,1009.85
2022-09-24T08:43:36.703Z,1009.87
2022-09-24T08:44:36.687Z,1009.88
2022-09-24T08:45:36.675Z,1009.90
2022-09-24T08:46:36.717Z,1009.90
2022-09-24T08:47:36.682Z,1009.89
2022-09-24T08:48:36.662Z,1009.92
2022-09-24T08:49:36.636Z,1009.91
2022-09-24T08:50:36.620Z,1009.92
2022-09-24T08:51:36.607Z,1009.95
2022-09-24T08:52:36.595Z,1009.92
2022-09-24T08:53:36.585Z,1009.94
2022-09-24T08:54:36.573Z,1009.94
2022-09-24T08:55:36.569Z,1009.93
2022-09-24T08:56:36.553Z,1009.92
2022-09-24T08:57:36.539Z,1009.94
2022-09-24T08:58:40.432Z,1009.97
2022-09-24T08:59:37.516Z,1010.00
2022-09-24T09:00:36.527Z,1009.98
2022-09-24T09:01:36.559Z,1009.96
2022-09-24T09:02:36.572Z,1009.96
2022-09-24T09:03:36.476Z,1010.00
2022-09-24T09:04:36.479Z,1009.95
2022-09-24T09:05:36.448Z,1009.95
2022-09-24T09:06:36.438Z,1009.95
2022-09-24T09:07:36.435Z,1009.91
2022-09-24T09:09:06.396Z,1009.91
2022-09-24T09:09:37.402Z,1009.94
2022-09-24T09:10:36.393Z,1009.90
2022-09-24T09:11:36.381Z,1009.95
2022-09-24T09:12:36.370Z,1009.90
2022-09-24T09:13:36.380Z,1009.91
2022-09-24T09:14:41.126Z,1009.87
2022-09-24T09:15:37.388Z,1009.90
2022-09-24T09:16:36.371Z,1009.89
2022-09-24T09:17:36.315Z,1009.90
2022-09-24T09:18:36.304Z,1009.87
2022-09-24T09:19:36.326Z,1009.88
2022-09-24T09:20:36.381Z,1009.89
2022-09-24T09:21:36.268Z,1009.86
2022-09-24T09:22:36.257Z,1009.91
2022-09-24T09:23:36.255Z,1009.91
2022-09-24T09:24:36.235Z,1009.91
2022-09-24T09:25:36.230Z,1009.87
2022-09-24T09:26:36.213Z,1009.86
2022-09-24T09:27:36.200Z,1009.86
2022-09-24T09:28:36.189Z,1009.89
2022-09-24T09:29:36.179Z,1009.87
2022-09-24T09:30:36.171Z,1009.85
2022-09-24T09:31:36.220Z,1009.84
2022-09-24T09:32:36.145Z,1009.88
2022-09-24T09:33:36.137Z,1009.86
2022-09-24T09:34:36.122Z,1009.86
2022-09-24T09:35:36.115Z,1009.86
2022-09-24T09:36:36.123Z,1009.86
2022-09-24T09:37:36.094Z,1009.86
2022-09-24T09:38:36.077Z,1009.82
2022-09-24T09:39:36.066Z,1009.84
2022-09-24T09:40:36.144Z,1009.80
2022-09-24T09:41:36.042Z,1009.83
2022-09-24T09:42:36.041Z,1009.82
2022-09-24T09:43:36.026Z,1009.85
2022-09-24T09:44:36.010Z,1009.83
2022-09-24T09:45:36.000Z,1009.81
2022-09-24T09:46:36.019Z,1009.80
2022-09-24T09:47:35.975Z,1009.75
2022-09-24T09:48:35.964Z,1009.78
2022-09-24T09:49:35.977Z,1009.77
2022-09-24T09:50:35.944Z,1009.78
2022-09-24T09:51:35.930Z,1009.80
2022-09-24T09:52:35.937Z,1009.78
2022-09-24T09:53:35.909Z,1009.80
2022-09-24T09:54:35.899Z,1009.76
2022-09-24T09:55:35.891Z,1009.78
2022-09-24T09:56:35.875Z,1009.77
2022-09-24T09:57:35.866Z,1009.77
2022-09-24T09:58:35.852Z,1009.75
2022-09-24T09:59:35.841Z,1009.78
2022-09-24T10:00:35.829Z,1009.79
2022-09-24T10:01:35.823Z,1009.79
2022-09-24T10:02:35.871Z,1009.84
2022-09-24T10:03:35.879Z,1009.81
2022-09-24T10:04:35.784Z,1009.80
2022-09-24T10:05:35.773Z,1009.81
2022-09-24T10:06:35.763Z,1009.84
2022-09-24T10:07:35.758Z,1009.82
2022-09-24T10:08:35.756Z,1009.79
2022-09-24T10:09:35.729Z,1009.81
2022-09-24T10:10:35.716Z,1009.77
2022-09-24T10:11:35.707Z,1009.80
2022-09-24T10:12:35.696Z,1009.85
2022-09-24T10:13:35.689Z,1009.81
2022-09-24T10:14:35.674Z,1009.77
2022-09-24T10:15:35.660Z,1009.79
2022-09-24T10:16:35.727Z,1009.82
2022-09-24T10:17:35.637Z,1009.76
2022-09-24T10:18:35.627Z,1009.79
2022-09-24T10:19:35.622Z,1009.81
2022-09-24T10:20:35.607Z,1009.81
2022-09-24T10:21:35.597Z,1009.81
2022-09-24T10:22:35.582Z,1009.84
2022-09-24T10:23:35.573Z,1009.76
2022-09-24T10:24:35.578Z,1009.78
2022-09-24T10:25:35.582Z,1009.75
2022-09-24T10:26:35.538Z,1009.77
2022-09-24T10:27:35.524Z,1009.76
2022-09-24T10:28:35.515Z,1009.79
2022-09-24T10:29:35.506Z,1009.79
2022-09-24T10:30:35.492Z,1009.81
2022-09-24T10:31:35.557Z,1009.77
2022-09-24T10:32:35.471Z,1009.75
2022-09-24T10:33:35.457Z,1009.77
2022-09-24T10:34:35.447Z,1009.74
2022-09-24T10:35:35.435Z,1009.76
2022-09-24T10:36:35.428Z,1009.77
2022-09-24T10:37:35.422Z,1009.78
2022-09-24T10:38:35.402Z,1009.75
2022-09-24T10:39:35.389Z,1009.73
2022-09-24T10:40:35.520Z,1009.74
2022-09-24T10:41:35.368Z,1009.73
2022-09-24T10:42:35.358Z,1009.74
2022-09-24T10:43:35.367Z,1009.72
2022-09-24T10:44:35.334Z,1009.71
2022-09-24T10:45:35.322Z,1009.69
2022-09-24T10:46:35.363Z,1009.67
2022-09-24T10:47:35.299Z,1009.72
2022-09-24T10:48:35.289Z,1009.73
2022-09-24T10:49:35.282Z,1009.69
2022-09-24T10:50:35.266Z,1009.72
2022-09-24T10:51:35.257Z,1009.71
2022-09-24T10:52:35.245Z,1009.67
2022-09-24T10:53:35.231Z,1009.71
2022-09-24T10:54:35.221Z,1009.68
2022-09-24T10:55:35.230Z,1009.70
2022-09-24T10:56:35.217Z,1009.66
2022-09-24T10:57:35.189Z,1009.68
2022-09-24T10:58:35.178Z,1009.68
2022-09-24T10:59:35.164Z,1009.67
2022-09-24T11:00:35.155Z,1009.70
2022-09-24T11:01:35.199Z,1009.71
2022-09-24T11:02:35.185Z,1009.72
2022-09-24T11:03:35.119Z,1009.73
2022-09-24T11:04:38.790Z,1009.74
2022-09-24T11:05:35.099Z,1009.76
2022-09-24T11:06:35.087Z,1009.73
2022-09-24T11:07:35.090Z,1009.75
2022-09-24T11:08:35.066Z,1009.73
2022-09-24T11:09:35.057Z,1009.73
2022-09-24T11:10:35.049Z,1009.72
2022-09-24T11:11:35.029Z,1009.75
2022-09-24T11:12:35.036Z,1009.77
2022-09-24T11:13:35.014Z,1009.76
2022-09-24T11:14:34.995Z,1009.81
2022-09-24T11:15:34.984Z,1009.77
2022-09-24T11:16:35.007Z,1009.77
2022-09-24T11:17:34.966Z,1009.78
2022-09-24T11:18:34.957Z,1009.79
2022-09-24T11:19:34.945Z,1009.76
2022-09-24T11:20:34.929Z,1009.75
2022-09-24T11:21:34.918Z,1009.77
2022-09-24T11:22:34.906Z,1009.75
2022-09-24T11:23:34.894Z,1009.75
2022-09-24T11:24:34.883Z,1009.72
2022-09-24T11:25:34.877Z,1009.67
2022-09-24T11:26:34.860Z,1009.62
2022-09-24T11:27:34.849Z,1009.65
2022-09-24T11:28:34.856Z,1009.59
2022-09-24T11:29:37.329Z,1009.60
2022-09-24T11:30:34.815Z,1009.60
2022-09-24T11:31:34.904Z,1009.61
2022-09-24T11:32:34.792Z,1009.56
2022-09-24T11:33:34.781Z,1009.60
2022-09-24T11:34:34.771Z,1009.61
2022-09-24T11:35:34.759Z,1009.60
2022-09-24T11:36:34.752Z,1009.60
2022-09-24T11:37:34.743Z,1009.59
2022-09-24T11:38:34.731Z,1009.59
2022-09-24T11:39:34.714Z,1009.56
2022-09-24T11:40:34.760Z,1009.57
2022-09-24T11:41:34.690Z,1009.52
2022-09-24T11:42:34.681Z,1009.59
2022-09-24T11:43:34.674Z,1009.56
2022-09-24T11:44:34.678Z,1009.56
2022-09-24T11:45:34.647Z,1009.54
2022-09-24T11:46:34.661Z,1009.54
2022-09-24T11:47:34.624Z,1009.55
2022-09-24T11:48:34.615Z,1009.56
2022-09-24T11:49:34.625Z,1009.56
2022-09-24T11:50:34.590Z,1009.57
2022-09-24T11:51:34.579Z,1009.57
2022-09-24T11:52:34.570Z,1009.59
2022-09-24T11:53:34.555Z,1009.60
2022-09-24T11:54:34.546Z,1009.56
2022-09-24T11:55:34.541Z,1009.54
2022-09-24T11:56:34.523Z,1009.58
2022-09-24T11:57:34.510Z,1009.61
2022-09-24T11:58:34.500Z,1009.60
2022-09-24T11:59:34.488Z,1009.60
2022-09-24T12:00:34.576Z,1009.56
2022-09-24T12:01:34.541Z,1009.59
2022-09-24T12:02:34.522Z,1009.58
2022-09-24T12:03:34.497Z,1009.58
2022-09-24T12:04:34.432Z,1009.59
2022-09-24T12:05:34.428Z,1009.58